Time;durP1;ratioP1;P1;durP2;ratioP2;P2;SDS_P1;SDS_P2;PMS_P1;PMS_P2;Temp;Humidity;BMP_temperature;BMP_pressure;BME280_temperature;BME280_humidity;BME280_pressure;Samples;Min_cycle;Max_cycle;Signal;HPM_P1;HPM_P2
2023/01/29 00:01:56;;;;;;;20.13;13.37;;;0.90;99.90;;;;;;5033346;28;20372;-42
2023/01/29 00:04:22;;;;;;;20.07;12.60;;;0.90;99.90;;;;;;5016646;28;20275;-41
2023/01/29 00:06:47;;;;;;;18.80;11.93;;;0.90;99.90;;;;;;5033177;28;20220;-42
2023/01/29 00:09:13;;;;;;;15.73;10.93;;;0.90;99.90;;;;;;5032584;28;20182;-39
2023/01/29 00:11:40;;;;;;;24.30;13.97;;;0.90;99.90;;;;;;5033720;28;20198;-40
2023/01/29 00:14:06;;;;;;;18.00;11.27;;;0.90;99.90;;;;;;5049500;28;20174;-41
2023/01/29 00:16:32;;;;;;;23.53;14.53;;;0.80;99.90;;;;;;5034685;28;20190;-38
2023/01/29 00:18:59;;;;;;;16.93;10.97;;;0.80;99.90;;;;;;5049818;28;20189;-39
2023/01/29 00:21:25;;;;;;;15.50;9.73;;;0.80;99.90;;;;;;5032772;28;20242;-39
2023/01/29 00:23:54;;;;;;;16.03;10.37;;;0.80;99.90;;;;;;5016579;28;20229;-38
2023/01/29 00:26:19;;;;;;;17.77;11.33;;;0.80;99.90;;;;;;5031061;28;20208;-39
2023/01/29 00:28:47;;;;;;;21.67;12.40;;;0.70;99.90;;;;;;5032805;28;20206;-39
2023/01/29 00:31:19;;;;;;;22.17;12.33;;;0.70;99.90;;;;;;5034130;28;20227;-39
2023/01/29 00:33:44;;;;;;;20.93;12.73;;;0.70;99.90;;;;;;5016089;28;20358;-37
2023/01/29 00:36:12;;;;;;;22.40;13.27;;;0.60;99.90;;;;;;5032658;28;20303;-39
2023/01/29 00:38:38;;;;;;;23.83;13.30;;;0.60;99.90;;;;;;5032630;28;20288;-37
2023/01/29 00:46:42;;;;;;;11.93;9.10;;;0.60;99.90;;;;;;5033800;28;20229;-40
2023/01/29 00:49:09;;;;;;;12.10;8.90;;;0.70;99.90;;;;;;5016128;28;20210;-40
2023/01/29 00:51:37;;;;;;;11.53;8.33;;;0.70;99.90;;;;;;5042405;28;20209;-38
2023/01/29 00:54:05;;;;;;;10.93;8.07;;;0.70;99.90;;;;;;5013623;28;20177;-38
2023/01/29 00:56:33;;;;;;;12.17;8.50;;;0.70;99.90;;;;;;5032243;28;20196;-40
2023/01/29 00:58:59;;;;;;;12.63;8.87;;;0.70;99.90;;;;;;5032095;28;20202;-39
2023/01/29 01:04:11;;;;;;;11.60;8.33;;;0.80;99.90;;;;;;5032216;28;20259;-40
2023/01/29 01:06:41;;;;;;;14.33;8.70;;;0.80;99.90;;;;;;5031114;28;20800;-36
2023/01/29 01:11:53;;;;;;;12.30;8.57;;;0.90;99.90;;;;;;5032170;28;20253;-38
2023/01/29 01:14:19;;;;;;;10.97;8.03;;;0.90;99.90;;;;;;5031870;28;20182;-38
2023/01/29 01:16:46;;;;;;;12.83;8.47;;;0.90;99.90;;;;;;5032714;28;20182;-42
2023/01/29 01:19:13;;;;;;;11.67;8.87;;;0.90;99.90;;;;;;5031586;28;20209;-41
2023/01/29 01:21:39;;;;;;;10.03;8.27;;;0.90;99.90;;;;;;5031857;28;20717;-39
2023/01/29 01:24:05;;;;;;;12.77;8.10;;;0.90;99.90;;;;;;5031593;28;20225;-42
2023/01/29 01:26:32;;;;;;;11.90;8.47;;;0.90;99.90;;;;;;5031155;28;20232;-42
2023/01/29 01:28:58;;;;;;;11.03;8.80;;;0.90;99.90;;;;;;5031576;28;20253;-42
2023/01/29 01:31:24;;;;;;;12.03;9.10;;;0.90;99.90;;;;;;5031920;28;20580;-42
2023/01/29 01:33:50;;;;;;;12.27;9.00;;;0.90;99.90;;;;;;5031497;28;20215;-41
2023/01/29 01:36:16;;;;;;;11.30;8.10;;;0.90;99.90;;;;;;5031694;28;20177;-42
2023/01/29 01:38:45;;;;;;;10.67;8.07;;;0.90;99.90;;;;;;5014804;28;20233;-41
2023/01/29 01:41:16;;;;;;;11.77;8.77;;;0.90;99.90;;;;;;5031487;28;20686;-41
2023/01/29 01:44:00;;;;;;;10.73;8.20;;;0.90;99.90;;;;;;5031392;28;20177;-41
2023/01/29 01:46:30;;;;;;;12.47;8.50;;;0.90;99.90;;;;;;5032623;28;20206;-42
2023/01/29 01:49:07;;;;;;;10.40;7.47;;;0.90;99.90;;;;;;5031288;28;20199;-38
2023/01/29 01:51:38;;;;;;;10.87;8.37;;;0.90;99.90;;;;;;5032857;28;20737;-41
2023/01/29 01:54:10;;;;;;;10.37;8.13;;;0.90;99.90;;;;;;5030719;28;20185;-41
2023/01/29 01:56:41;;;;;;;8.93;7.53;;;0.90;99.90;;;;;;5014841;28;20189;-42
2023/01/29 01:59:10;;;;;;;9.47;6.63;;;0.90;99.90;;;;;;5031264;28;20194;-41
2023/01/29 02:01:41;;;;;;;9.13;7.10;;;0.90;99.90;;;;;;5014503;28;20224;-42
2023/01/29 02:09:52;;;;;;;11.70;8.30;;;0.90;99.90;;;;;;5030608;28;20181;-42
2023/01/29 02:12:19;;;;;;;5.93;4.80;;;0.90;99.90;;;;;;5030748;28;20181;-41
2023/01/29 02:14:45;;;;;;;5.40;4.70;;;0.80;99.90;;;;;;5030866;28;20185;-40
2023/01/29 02:17:17;;;;;;;5.67;4.10;;;0.80;99.90;;;;;;5030584;28;20185;-41
2023/01/29 02:19:58;;;;;;;4.97;4.40;;;0.80;99.90;;;;;;5030603;28;20188;-40
2023/01/29 02:22:58;;;;;;;6.97;5.57;;;0.90;99.90;;;;;;5030436;28;20283;-41
2023/01/29 02:26:01;;;;;;;9.23;7.13;;;0.90;99.90;;;;;;5013689;28;20255;-42
2023/01/29 02:28:42;;;;;;;8.37;6.60;;;0.90;99.90;;;;;;5014197;28;20191;-41
2023/01/29 02:31:41;;;;;;;9.53;7.00;;;0.90;99.90;;;;;;5013970;28;20202;-41
2023/01/29 02:37:38;;;;;;;10.43;7.20;;;0.90;99.90;;;;;;5030466;28;20181;-42
2023/01/29 02:40:29;;;;;;;10.03;7.37;;;1.00;99.90;;;;;;5030318;28;20212;-41
2023/01/29 02:42:58;;;;;;;10.43;7.73;;;0.90;99.90;;;;;;5034634;28;20279;-42
2023/01/29 02:45:41;;;;;;;10.97;8.00;;;0.90;99.90;;;;;;5028131;28;20211;-41
2023/01/29 02:48:16;;;;;;;9.43;7.27;;;0.90;99.90;;;;;;5036479;28;20650;-40
2023/01/29 02:51:09;;;;;;;9.10;6.70;;;0.90;99.90;;;;;;5024514;28;20198;-42
2023/01/29 02:54:01;;;;;;;8.50;6.90;;;0.90;99.90;;;;;;5040229;28;20268;-41
2023/01/29 02:56:55;;;;;;;8.83;6.30;;;0.90;99.90;;;;;;5050270;28;20222;-41
2023/01/29 03:00:01;;;;;;;11.53;8.17;;;0.90;99.90;;;;;;5031471;28;20232;-41
2023/01/29 03:02:42;;;;;;;12.00;7.30;;;0.90;99.90;;;;;;5004323;28;20229;-42
2023/01/29 03:05:14;;;;;;;9.10;6.83;;;0.90;99.90;;;;;;5009333;28;20189;-42
2023/01/29 03:07:47;;;;;;;8.87;6.53;;;0.90;99.90;;;;;;4999701;28;20175;-41
2023/01/29 03:10:56;;;;;;;9.07;6.67;;;0.90;99.90;;;;;;5008042;28;20209;-41
2023/01/29 03:13:36;;;;;;;10.93;7.40;;;0.90;99.90;;;;;;5025967;28;20205;-42
2023/01/29 03:16:11;;;;;;;9.73;7.10;;;0.90;99.90;;;;;;5013755;28;20193;-40
2023/01/29 03:18:49;;;;;;;9.73;7.00;;;0.80;99.90;;;;;;5029309;28;20239;-37
2023/01/29 03:33:02;;;;;;;9.93;6.97;;;0.90;99.90;;;;;;5011337;28;20186;-37
2023/01/29 03:35:35;;;;;;;10.33;6.93;;;0.90;99.90;;;;;;5009954;28;20232;-38
2023/01/29 03:38:04;;;;;;;10.57;6.90;;;0.90;99.90;;;;;;5028811;28;20523;-40
2023/01/29 03:40:40;;;;;;;8.00;6.60;;;0.90;99.90;;;;;;5029570;28;20229;-39
2023/01/29 03:43:38;;;;;;;8.37;6.80;;;0.90;99.90;;;;;;5008966;28;20268;-39
2023/01/29 03:46:10;;;;;;;9.03;6.77;;;0.90;99.90;;;;;;5011509;28;20237;-37
2023/01/29 03:48:43;;;;;;;9.73;6.93;;;0.90;99.90;;;;;;5029618;28;20236;-38
2023/01/29 03:51:36;;;;;;;7.93;6.17;;;0.90;99.90;;;;;;5027556;28;20200;-41
2023/01/29 03:54:17;;;;;;;8.60;7.17;;;0.90;99.90;;;;;;5009150;28;20191;-38
2023/01/29 03:56:55;;;;;;;8.97;7.47;;;0.90;99.90;;;;;;5022334;28;20188;-39
2023/01/29 03:59:36;;;;;;;10.20;6.97;;;0.90;99.90;;;;;;5029530;28;20189;-40
2023/01/29 04:02:35;;;;;;;11.07;7.57;;;0.90;99.90;;;;;;5022882;28;20194;-40
2023/01/29 04:05:12;;;;;;;10.13;7.70;;;0.90;99.90;;;;;;4994065;28;20317;-39
2023/01/29 04:07:52;;;;;;;9.60;7.03;;;0.80;99.90;;;;;;5004684;28;20225;-41
2023/01/29 04:10:23;;;;;;;10.87;7.97;;;0.80;99.90;;;;;;5009406;28;20198;-40
2023/01/29 04:12:51;;;;;;;9.50;7.33;;;0.80;99.90;;;;;;4993421;28;20229;-40
2023/01/29 04:15:19;;;;;;;8.70;7.27;;;0.80;99.90;;;;;;5010009;28;20179;-41
2023/01/29 04:17:51;;;;;;;8.57;7.10;;;0.80;99.90;;;;;;5027503;28;20178;-42
2023/01/29 04:20:34;;;;;;;11.20;8.03;;;0.70;99.90;;;;;;5009564;28;20201;-41
2023/01/29 04:23:00;;;;;;;9.67;7.53;;;0.70;99.90;;;;;;5009309;28;20643;-41
2023/01/29 04:25:32;;;;;;;11.57;8.40;;;0.80;99.90;;;;;;5005234;28;20210;-41
2023/01/29 04:28:12;;;;;;;10.20;7.80;;;0.80;99.90;;;;;;5008916;28;20193;-42
2023/01/29 04:30:59;;;;;;;10.43;7.77;;;0.80;99.90;;;;;;5029051;28;20206;-42
2023/01/29 04:33:39;;;;;;;9.57;7.10;;;0.80;99.90;;;;;;4993275;28;20227;-37
2023/01/29 04:36:24;;;;;;;10.87;7.67;;;0.80;99.90;;;;;;5010780;28;20189;-41
2023/01/29 04:38:58;;;;;;;9.47;7.47;;;0.80;99.90;;;;;;5027837;28;20192;-40
2023/01/29 04:41:30;;;;;;;8.50;7.33;;;0.80;99.90;;;;;;5031417;28;20206;-42
2023/01/29 04:44:08;;;;;;;9.80;7.20;;;0.70;99.90;;;;;;5038379;28;20193;-41
2023/01/29 04:47:17;;;;;;;9.87;7.23;;;0.70;99.90;;;;;;5029532;28;20236;-42
2023/01/29 04:50:12;;;;;;;8.77;7.33;;;0.60;99.90;;;;;;5005639;28;20216;-41
2023/01/29 04:52:46;;;;;;;8.70;6.60;;;0.60;99.90;;;;;;5016086;28;20188;-42
2023/01/29 04:55:40;;;;;;;8.30;6.77;;;0.70;99.90;;;;;;5010578;28;20200;-41
2023/01/29 04:58:20;;;;;;;9.93;7.20;;;0.70;99.90;;;;;;5020632;28;20182;-41
2023/01/29 05:00:52;;;;;;;8.10;6.40;;;0.70;99.90;;;;;;4996085;28;20217;-41
2023/01/29 05:03:20;;;;;;;9.37;7.03;;;0.70;99.90;;;;;;5009906;28;20205;-42
2023/01/29 05:05:47;;;;;;;9.80;7.23;;;0.70;99.90;;;;;;5030254;28;20229;-41
2023/01/29 05:08:18;;;;;;;8.80;7.07;;;0.80;99.90;;;;;;5033416;28;20202;-41
2023/01/29 05:10:46;;;;;;;9.43;6.93;;;0.80;99.90;;;;;;5030459;28;20220;-42
2023/01/29 05:13:14;;;;;;;8.73;7.17;;;0.80;99.90;;;;;;5012381;28;20250;-41
2023/01/29 05:15:49;;;;;;;9.87;7.87;;;0.80;99.90;;;;;;5012857;28;20186;-41
2023/01/29 05:18:15;;;;;;;10.17;6.90;;;0.80;99.90;;;;;;5013562;28;20188;-41
2023/01/29 05:20:43;;;;;;;8.17;6.70;;;0.80;99.90;;;;;;5012731;28;20298;-41
2023/01/29 05:23:20;;;;;;;8.87;6.83;;;0.80;99.90;;;;;;5013649;28;20178;-42
2023/01/29 05:25:48;;;;;;;8.60;7.20;;;0.70;99.90;;;;;;5027644;28;20209;-41
2023/01/29 05:28:17;;;;;;;9.33;7.00;;;0.70;99.90;;;;;;5031354;28;20233;-42
2023/01/29 05:30:52;;;;;;;9.20;7.20;;;0.70;99.90;;;;;;5011840;28;20222;-40
2023/01/29 05:33:25;;;;;;;7.87;6.90;;;0.80;99.90;;;;;;5012023;28;20178;-42
2023/01/29 05:35:51;;;;;;;8.10;6.50;;;0.80;99.90;;;;;;5012856;28;20229;-41
2023/01/29 05:38:18;;;;;;;7.93;6.60;;;0.80;99.90;;;;;;5012923;28;20186;-41
2023/01/29 05:40:44;;;;;;;7.70;6.70;;;0.80;99.90;;;;;;5028023;28;20256;-42
2023/01/29 05:43:18;;;;;;;8.87;6.93;;;0.80;99.90;;;;;;4995516;28;20190;-41
2023/01/29 05:45:55;;;;;;;8.00;6.50;;;0.80;99.90;;;;;;5027846;28;20305;-41
2023/01/29 05:48:21;;;;;;;7.50;6.40;;;0.80;99.90;;;;;;4995476;28;20182;-41
2023/01/29 05:50:47;;;;;;;10.10;7.43;;;0.70;99.90;;;;;;5011302;28;20209;-41
2023/01/29 05:53:13;;;;;;;8.00;6.60;;;0.70;99.90;;;;;;5011055;28;20175;-42
2023/01/29 05:55:42;;;;;;;9.30;7.17;;;0.70;99.90;;;;;;5027388;28;20257;-41
2023/01/29 05:58:08;;;;;;;8.90;7.20;;;0.70;99.90;;;;;;5032446;28;20193;-41
2023/01/29 06:00:34;;;;;;;11.30;7.40;;;0.70;99.90;;;;;;5031980;28;20224;-41
2023/01/29 06:03:00;;;;;;;8.87;7.57;;;0.70;99.90;;;;;;4994898;28;20190;-41
2023/01/29 06:05:25;;;;;;;7.40;6.50;;;0.70;99.90;;;;;;5008541;28;20210;-41
2023/01/29 06:07:51;;;;;;;9.17;6.97;;;0.70;99.90;;;;;;5014381;28;20657;-41
2023/01/29 06:10:18;;;;;;;10.53;8.50;;;0.70;99.90;;;;;;5030147;28;20201;-42
2023/01/29 06:12:44;;;;;;;9.50;6.97;;;0.70;99.90;;;;;;5014636;28;20194;-41
2023/01/29 06:15:11;;;;;;;9.93;7.40;;;0.70;99.90;;;;;;5020658;28;20205;-41
2023/01/29 06:17:37;;;;;;;9.63;7.53;;;0.70;99.90;;;;;;5011139;28;20218;-41
2023/01/29 06:20:04;;;;;;;9.23;7.33;;;0.60;99.90;;;;;;5013213;28;20210;-41
2023/01/29 06:22:29;;;;;;;8.93;6.93;;;0.70;99.90;;;;;;5011110;28;20213;-41
2023/01/29 06:24:55;;;;;;;9.17;7.23;;;0.70;99.90;;;;;;5018854;28;20221;-40
2023/01/29 06:27:21;;;;;;;9.47;6.97;;;0.60;99.90;;;;;;5014031;28;20260;-41
2023/01/29 06:29:47;;;;;;;11.53;7.60;;;0.60;99.90;;;;;;5024206;28;20632;-41
2023/01/29 06:32:12;;;;;;;9.63;7.27;;;0.60;99.90;;;;;;4994523;28;20198;-42
2023/01/29 06:34:38;;;;;;;10.40;7.50;;;0.60;99.90;;;;;;5015353;28;20197;-40
2023/01/29 06:37:06;;;;;;;9.67;7.33;;;0.60;99.90;;;;;;5032022;28;20173;-39
2023/01/29 06:39:33;;;;;;;8.17;6.70;;;0.60;99.90;;;;;;5030232;28;20178;-41
2023/01/29 06:41:58;;;;;;;8.97;7.20;;;0.70;99.90;;;;;;5031971;28;20216;-42
2023/01/29 06:44:24;;;;;;;9.43;7.30;;;0.70;99.90;;;;;;5013701;28;20181;-42
2023/01/29 06:46:50;;;;;;;10.07;7.17;;;0.70;99.90;;;;;;5010314;28;20237;-42
2023/01/29 06:49:16;;;;;;;8.37;7.00;;;0.70;99.90;;;;;;5026595;28;20185;-40
2023/01/29 06:51:42;;;;;;;8.83;7.23;;;0.70;99.90;;;;;;5030302;28;20300;-42
2023/01/29 06:54:09;;;;;;;8.80;6.73;;;0.70;99.90;;;;;;5028246;28;20194;-41
2023/01/29 06:56:35;;;;;;;9.70;7.20;;;0.70;99.90;;;;;;5013621;28;20268;-41
2023/01/29 06:59:00;;;;;;;9.43;7.37;;;0.70;99.90;;;;;;5017494;28;20282;-42
2023/01/29 07:01:26;;;;;;;9.03;7.07;;;0.70;99.90;;;;;;5010015;28;20220;-41
2023/01/29 07:03:52;;;;;;;10.63;7.53;;;0.70;99.90;;;;;;5017600;28;20188;-41
2023/01/29 07:06:18;;;;;;;9.47;7.10;;;0.70;99.90;;;;;;5010204;28;20245;-40
2023/01/29 07:08:44;;;;;;;9.27;6.97;;;0.70;99.90;;;;;;4995099;28;20183;-42
2023/01/29 07:11:11;;;;;;;9.47;7.57;;;0.70;99.90;;;;;;5010245;28;20217;-42
2023/01/29 07:13:37;;;;;;;9.93;7.43;;;0.70;99.90;;;;;;4997787;28;20197;-41
2023/01/29 07:16:04;;;;;;;8.83;6.13;;;0.80;99.90;;;;;;5010584;28;20264;-41
2023/01/29 07:18:30;;;;;;;8.53;6.80;;;0.70;99.90;;;;;;5015775;28;20184;-41
2023/01/29 07:20:58;;;;;;;10.03;6.93;;;0.70;99.90;;;;;;5029975;28;20256;-42
2023/01/29 07:23:24;;;;;;;7.70;6.20;;;0.70;99.90;;;;;;5025863;28;20184;-41
2023/01/29 07:25:50;;;;;;;8.60;6.53;;;0.70;99.90;;;;;;5026717;28;20220;-41
2023/01/29 07:28:19;;;;;;;9.87;6.73;;;0.70;99.90;;;;;;5033191;28;20173;-41
2023/01/29 07:30:45;;;;;;;10.13;7.10;;;0.70;99.90;;;;;;5037630;28;20202;-41
2023/01/29 07:33:11;;;;;;;10.97;7.63;;;0.70;99.90;;;;;;5038203;28;20239;-41
2023/01/29 07:35:42;;;;;;;14.43;8.93;;;0.70;99.90;;;;;;5040200;28;20212;-39
2023/01/29 07:38:09;;;;;;;15.33;8.70;;;0.80;99.90;;;;;;5038014;28;20634;-40
2023/01/29 07:40:35;;;;;;;8.53;6.37;;;0.80;99.90;;;;;;5036585;28;20197;-41
2023/01/29 07:43:04;;;;;;;9.77;6.10;;;0.80;99.90;;;;;;5021982;28;20196;-39
2023/01/29 07:45:37;;;;;;;8.43;6.90;;;0.70;99.90;;;;;;5028891;28;20222;-41
2023/01/29 07:48:04;;;;;;;8.90;6.80;;;0.80;99.90;;;;;;5027265;28;20188;-41
2023/01/29 07:50:31;;;;;;;11.13;8.30;;;0.80;99.90;;;;;;5030885;28;20230;-42
2023/01/29 07:52:57;;;;;;;8.27;6.47;;;0.80;99.90;;;;;;5015055;28;20178;-41
2023/01/29 07:55:23;;;;;;;9.50;7.47;;;0.80;99.90;;;;;;5006993;28;20194;-42
2023/01/29 07:58:00;;;;;;;7.50;5.90;;;0.80;99.90;;;;;;5030701;28;20216;-42
2023/01/29 08:00:26;;;;;;;7.33;5.40;;;0.80;99.90;;;;;;5008935;28;20210;-41
2023/01/29 08:02:52;;;;;;;7.43;5.50;;;0.80;99.90;;;;;;4993624;28;20265;-42
2023/01/29 08:05:18;;;;;;;7.77;5.63;;;0.80;99.90;;;;;;5004529;28;20264;-42
2023/01/29 08:07:44;;;;;;;7.70;5.57;;;0.80;99.90;;;;;;5030836;28;20181;-40
2023/01/29 08:10:10;;;;;;;8.40;5.50;;;0.80;99.90;;;;;;5029326;28;20202;-42
2023/01/29 08:12:36;;;;;;;7.07;5.47;;;0.80;99.90;;;;;;5030490;28;20171;-39
2023/01/29 08:15:02;;;;;;;5.90;4.17;;;0.80;99.90;;;;;;5004148;28;20186;-42
2023/01/29 08:17:27;;;;;;;9.90;7.17;;;0.80;99.90;;;;;;4997575;28;20186;-42
2023/01/29 08:19:53;;;;;;;5.90;4.70;;;0.80;99.90;;;;;;5013205;28;20193;-42
2023/01/29 08:22:19;;;;;;;8.20;5.40;;;0.80;99.90;;;;;;5016418;28;20190;-41
2023/01/29 08:24:45;;;;;;;6.50;4.73;;;0.80;99.90;;;;;;5019907;28;20243;-41
2023/01/29 08:27:11;;;;;;;6.93;4.60;;;0.80;99.90;;;;;;5031073;28;20213;-41
2023/01/29 08:29:36;;;;;;;9.87;5.77;;;0.90;99.90;;;;;;5032796;28;20186;-42
2023/01/29 08:32:02;;;;;;;9.40;6.13;;;0.80;99.90;;;;;;5027104;28;20190;-42
2023/01/29 08:34:28;;;;;;;8.00;5.67;;;0.80;99.90;;;;;;5022875;28;20175;-41
2023/01/29 08:36:54;;;;;;;8.60;6.00;;;0.80;99.90;;;;;;5048890;28;20236;-41
2023/01/29 08:39:20;;;;;;;5.07;4.43;;;0.80;99.90;;;;;;5032113;28;20182;-41
2023/01/29 08:41:45;;;;;;;5.10;4.17;;;0.90;99.90;;;;;;5028069;28;20225;-41
2023/01/29 08:44:11;;;;;;;5.00;4.43;;;0.80;99.90;;;;;;5011586;28;20599;-41
2023/01/29 08:46:39;;;;;;;5.73;4.47;;;0.90;99.90;;;;;;5011678;28;20210;-41
2023/01/29 08:49:06;;;;;;;5.93;4.20;;;0.80;99.90;;;;;;5016396;28;20284;-41
2023/01/29 08:51:32;;;;;;;6.30;4.27;;;0.80;99.90;;;;;;5024318;28;20254;-42
2023/01/29 08:53:58;;;;;;;4.63;3.83;;;0.90;99.90;;;;;;5022198;28;20178;-41
2023/01/29 08:56:24;;;;;;;5.27;4.20;;;0.80;99.90;;;;;;5033595;28;20226;-42
2023/01/29 08:58:49;;;;;;;5.03;4.13;;;0.90;99.90;;;;;;5022718;28;20177;-41
2023/01/29 09:01:16;;;;;;;7.47;4.10;;;1.00;99.90;;;;;;5024802;28;20250;-41
2023/01/29 09:03:45;;;;;;;4.30;3.47;;;1.00;99.90;;;;;;5021382;28;20242;-39
2023/01/29 09:06:13;;;;;;;5.73;4.13;;;1.00;99.90;;;;;;5015402;28;20197;-41
2023/01/29 09:08:39;;;;;;;4.63;3.53;;;1.10;99.90;;;;;;5015685;28;20187;-42
2023/01/29 09:11:05;;;;;;;3.90;3.33;;;1.10;99.90;;;;;;5012612;28;20197;-42
2023/01/29 09:13:31;;;;;;;6.17;3.70;;;1.10;99.90;;;;;;5001461;28;20186;-42
2023/01/29 09:16:02;;;;;;;6.70;4.57;;;1.20;99.90;;;;;;5041095;23;20276;-88
2023/01/29 09:18:31;;;;;;;8.53;4.80;;;1.20;99.90;;;;;;5017327;28;20226;-88
2023/01/29 09:20:57;;;;;;;5.47;4.10;;;1.20;99.90;;;;;;5017181;28;20188;-88
2023/01/29 09:23:23;;;;;;;5.37;4.70;;;1.30;99.90;;;;;;5016677;28;20206;-88
2023/01/29 09:25:49;;;;;;;5.80;4.83;;;1.30;99.90;;;;;;5004660;28;20211;-87
2023/01/29 09:28:16;;;;;;;5.67;4.67;;;1.30;99.90;;;;;;5016355;28;20226;-87
2023/01/29 09:30:44;;;;;;;4.93;4.10;;;1.30;99.90;;;;;;5016661;28;20220;-88
2023/01/29 09:33:11;;;;;;;4.40;3.70;;;1.30;99.90;;;;;;5000391;28;20193;-90
2023/01/29 09:35:40;;;;;;;5.47;4.20;;;1.30;99.90;;;;;;5000915;28;20182;-90
2023/01/29 09:38:11;;;;;;;4.37;3.80;;;1.30;99.90;;;;;;5013257;28;20205;-88
2023/01/29 09:41:25;;;;;;;4.97;4.07;;;1.30;99.90;;;;;;5016452;28;20197;-89
2023/01/29 09:44:00;;;;;;;4.27;3.87;;;1.30;99.90;;;;;;5015968;28;20182;-88
2023/01/29 09:46:43;;;;;;;4.60;4.10;;;1.40;99.90;;;;;;4984084;28;20210;-87
2023/01/29 09:50:00;;;;;;;6.10;4.37;;;1.40;99.90;;;;;;5004728;28;20231;-92
2023/01/29 09:53:15;;;;;;;7.00;4.20;;;1.50;99.90;;;;;;4973681;28;20213;-93
2023/01/29 09:56:39;;;;;;;6.50;4.40;;;1.60;99.90;;;;;;5014123;28;20272;-92
2023/01/29 09:59:24;;;;;;;7.33;5.57;;;1.60;99.90;;;;;;5015089;28;20191;-92
2023/01/29 10:02:40;;;;;;;8.57;6.37;;;1.60;99.90;;;;;;5021361;28;20233;-92
2023/01/29 10:05:49;;;;;;;9.57;6.60;;;1.70;99.90;;;;;;5018551;28;20185;-92
2023/01/29 10:09:02;;;;;;;9.33;4.83;;;1.70;99.90;;;;;;5012675;28;20199;-92
2023/01/29 10:11:54;;;;;;;10.90;5.80;;;1.70;99.90;;;;;;5018707;28;20178;-92
2023/01/29 10:14:45;;;;;;;4.97;4.30;;;1.70;99.90;;;;;;4959739;28;20187;-92
2023/01/29 10:17:49;;;;;;;5.43;4.53;;;1.70;99.90;;;;;;5000983;28;20199;-92
2023/01/29 10:20:45;;;;;;;5.60;4.27;;;1.70;99.90;;;;;;4984994;28;20187;-92
2023/01/29 10:23:27;;;;;;;4.57;4.00;;;1.60;99.90;;;;;;5031583;28;20181;-93
2023/01/29 10:25:53;;;;;;;8.63;5.70;;;1.60;99.90;;;;;;5023240;28;20218;-92
2023/01/29 10:28:46;;;;;;;7.47;4.53;;;1.70;99.90;;;;;;5020475;28;20222;-92
2023/01/29 10:31:44;;;;;;;6.07;4.47;;;1.70;99.90;;;;;;5000703;28;20171;-92
2023/01/29 10:34:23;;;;;;;4.60;3.87;;;1.80;99.90;;;;;;5017017;28;20278;-92
2023/01/29 10:37:26;;;;;;;5.60;4.63;;;1.80;99.90;;;;;;5005056;28;20203;-92
2023/01/29 10:39:58;;;;;;;4.83;4.17;;;1.90;99.90;;;;;;5021219;28;20189;-92
2023/01/29 10:42:43;;;;;;;5.13;4.30;;;2.10;99.90;;;;;;5008256;28;20213;-92
2023/01/29 10:45:48;;;;;;;5.60;4.33;;;2.20;99.90;;;;;;5032258;28;20258;-92
2023/01/29 10:48:52;;;;;;;5.60;4.60;;;2.30;99.90;;;;;;5000300;28;20201;-93
2023/01/29 10:51:29;;;;;;;5.63;4.20;;;2.50;99.90;;;;;;5037834;28;20173;-93
2023/01/29 10:54:14;;;;;;;5.73;4.20;;;2.60;99.90;;;;;;5029575;28;20193;-93
2023/01/29 10:57:00;;;;;;;5.77;4.50;;;2.70;99.90;;;;;;5015020;28;20182;-93
2023/01/29 10:59:55;;;;;;;4.63;3.87;;;2.70;99.90;;;;;;5001924;28;20183;-93
2023/01/29 11:02:21;;;;;;;7.53;5.60;;;2.80;99.90;;;;;;5001162;28;20253;-93
2023/01/29 11:04:47;;;;;;;4.90;4.23;;;2.70;99.90;;;;;;5032581;28;20265;-92
2023/01/29 11:07:18;;;;;;;5.10;4.50;;;2.70;99.90;;;;;;5037642;28;20219;-93
2023/01/29 11:10:18;;;;;;;7.63;5.90;;;2.80;99.90;;;;;;5024050;28;20205;-93
2023/01/29 11:12:50;;;;;;;7.70;4.53;;;2.90;99.90;;;;;;5018022;28;20181;-93
2023/01/29 11:15:31;;;;;;;4.60;4.17;;;2.90;99.90;;;;;;5017922;28;20209;-92
2023/01/29 11:18:15;;;;;;;5.70;4.47;;;2.90;99.90;;;;;;5001264;28;20194;-92
2023/01/29 11:20:45;;;;;;;4.63;4.13;;;2.80;99.90;;;;;;4998422;28;20190;-94
2023/01/29 11:23:31;;;;;;;4.37;3.97;;;2.90;99.90;;;;;;4999375;28;20179;-93
2023/01/29 11:25:59;;;;;;;4.10;3.70;;;3.00;99.90;;;;;;5015273;28;20214;-92
2023/01/29 11:28:38;;;;;;;4.50;4.00;;;3.20;99.90;;;;;;5019257;28;20226;-93
2023/01/29 11:31:36;;;;;;;4.97;4.10;;;3.30;99.90;;;;;;5007551;28;20238;-94
2023/01/29 11:34:17;;;;;;;4.97;3.77;;;3.40;99.90;;;;;;5012174;28;20185;-93
2023/01/29 11:37:03;;;;;;;4.70;4.00;;;3.50;99.90;;;;;;5019761;28;20236;-93
2023/01/29 11:39:31;;;;;;;5.17;3.90;;;3.50;99.90;;;;;;4991938;28;20183;-94
2023/01/29 11:42:03;;;;;;;5.27;4.17;;;3.40;99.90;;;;;;5011202;28;20184;-93
2023/01/29 11:44:31;;;;;;;4.93;4.30;;;3.10;99.90;;;;;;5003608;28;20186;-93
2023/01/29 11:47:20;;;;;;;6.17;4.60;;;3.00;99.90;;;;;;5001492;28;20210;-94
2023/01/29 11:49:58;;;;;;;5.67;4.47;;;2.90;99.90;;;;;;5003537;28;20179;-93
2023/01/29 11:52:33;;;;;;;5.00;4.23;;;2.90;99.90;;;;;;5022351;28;20267;-93
2023/01/29 11:55:21;;;;;;;4.77;4.20;;;3.10;99.90;;;;;;5022803;28;20170;-93
2023/01/29 11:58:11;;;;;;;5.73;4.50;;;3.20;99.90;;;;;;5001138;28;20214;-93
2023/01/29 12:00:52;;;;;;;5.00;4.30;;;3.30;99.90;;;;;;5005990;28;20186;-93
2023/01/29 12:03:52;;;;;;;7.17;4.73;;;3.40;99.90;;;;;;5022466;28;20237;-93
2023/01/29 12:06:47;;;;;;;4.70;4.23;;;3.50;99.90;;;;;;5022465;28;20426;-93
2023/01/29 12:09:18;;;;;;;6.33;5.43;;;3.50;99.90;;;;;;5006585;28;20175;-93
2023/01/29 12:11:51;;;;;;;11.50;6.77;;;3.60;99.90;;;;;;5022595;28;20233;-93
2023/01/29 12:14:44;;;;;;;8.53;5.60;;;3.70;99.90;;;;;;5021096;28;20191;-93
2023/01/29 12:17:18;;;;;;;10.50;7.60;;;3.70;99.90;;;;;;5018510;28;20210;-94
2023/01/29 12:19:56;;;;;;;13.40;8.73;;;3.70;99.90;;;;;;5005234;28;20209;-94
2023/01/29 12:23:04;;;;;;;6.50;5.30;;;3.70;99.90;;;;;;5031722;28;20268;-93
2023/01/29 12:25:41;;;;;;;5.43;4.57;;;3.60;99.90;;;;;;5037918;28;20175;-93
2023/01/29 12:28:35;;;;;;;5.33;4.40;;;3.60;99.90;;;;;;5024657;28;20282;-93
2023/01/29 12:31:16;;;;;;;6.50;5.23;;;3.60;99.90;;;;;;5005266;28;20183;-93
2023/01/29 12:34:27;;;;;;;6.40;5.37;;;3.50;99.90;;;;;;5025962;28;20186;-93
2023/01/29 12:37:12;;;;;;;7.63;5.03;;;3.50;99.90;;;;;;5017758;28;20211;-94
2023/01/29 12:39:41;;;;;;;7.03;5.03;;;3.40;99.90;;;;;;5022014;28;20295;-93
2023/01/29 12:42:31;;;;;;;7.73;5.53;;;3.40;99.90;;;;;;5009011;28;20270;-93
2023/01/29 12:45:01;;;;;;;6.33;4.90;;;3.40;99.90;;;;;;5021275;28;20183;-93
2023/01/29 12:47:52;;;;;;;7.00;5.23;;;3.40;99.90;;;;;;5034120;28;20205;-93
2023/01/29 12:50:23;;;;;;;6.47;4.97;;;3.40;99.90;;;;;;5033896;28;20167;-93
2023/01/29 12:53:06;;;;;;;6.87;5.10;;;3.30;99.90;;;;;;5016493;28;20228;-93
2023/01/29 12:55:48;;;;;;;5.23;4.73;;;3.30;99.90;;;;;;5000798;28;20172;-93
2023/01/29 12:58:21;;;;;;;7.40;5.63;;;3.30;99.90;;;;;;5006472;28;20202;-93
2023/01/29 13:00:55;;;;;;;10.17;8.07;;;3.40;99.90;;;;;;5002915;28;20187;-92
2023/01/29 13:04:21;;;;;;;8.60;6.03;;;3.50;99.90;;;;;;5005120;28;20163;-94
2023/01/29 13:06:53;;;;;;;7.40;5.50;;;3.60;99.90;;;;;;5046878;28;20210;-93
2023/01/29 13:13:04;;;;;;;6.80;5.20;;;3.80;99.90;;;;;;5036285;28;20181;-93
2023/01/29 13:15:42;;;;;;;6.40;5.23;;;3.60;99.90;;;;;;5013278;28;20266;-93
2023/01/29 13:18:29;;;;;;;7.50;5.57;;;3.60;99.90;;;;;;5001903;28;20206;-93
2023/01/29 13:20:59;;;;;;;7.80;5.50;;;3.60;99.90;;;;;;5018943;28;20178;-93
2023/01/29 13:23:49;;;;;;;6.70;5.13;;;3.60;99.90;;;;;;5020413;28;20174;-93
2023/01/29 13:26:20;;;;;;;6.27;4.90;;;3.50;99.90;;;;;;5003742;28;20224;-93
2023/01/29 13:28:46;;;;;;;4.80;4.30;;;3.60;99.90;;;;;;5037731;28;20197;-93
2023/01/29 13:31:31;;;;;;;5.97;4.77;;;3.50;99.90;;;;;;4999679;28;20175;-93
2023/01/29 13:34:18;;;;;;;6.30;5.17;;;3.60;99.90;;;;;;5033602;28;20186;-94
2023/01/29 13:36:53;;;;;;;7.77;5.07;;;3.60;99.90;;;;;;5003556;28;20209;-94
2023/01/29 13:39:30;;;;;;;7.07;4.67;;;3.70;99.90;;;;;;5000482;28;20178;-93
2023/01/29 13:41:59;;;;;;;6.13;4.70;;;3.80;99.90;;;;;;5000201;28;20179;-93
2023/01/29 13:44:25;;;;;;;6.40;4.50;;;3.80;99.90;;;;;;5000137;28;20175;-94
2023/01/29 13:47:01;;;;;;;6.20;4.30;;;3.70;99.90;;;;;;4990496;28;20233;-92
2023/01/29 13:49:27;;;;;;;5.70;4.47;;;3.80;99.90;;;;;;5001667;28;20178;-92
2023/01/29 13:51:54;;;;;;;6.23;4.10;;;3.80;99.90;;;;;;5001037;28;20229;-92
2023/01/29 13:54:24;;;;;;;6.67;5.00;;;3.70;99.90;;;;;;5003118;28;20277;-92
2023/01/29 13:57:00;;;;;;;5.63;4.10;;;3.80;99.90;;;;;;5016857;28;20195;-92
2023/01/29 13:59:51;;;;;;;6.53;4.80;;;3.80;99.90;;;;;;5001528;28;20228;-92
2023/01/29 14:02:28;;;;;;;4.57;3.80;;;3.70;99.90;;;;;;5033751;28;20178;-92
2023/01/29 14:05:29;;;;;;;4.83;3.97;;;3.70;99.90;;;;;;5034462;28;20182;-92
2023/01/29 14:08:00;;;;;;;5.20;3.90;;;3.70;99.90;;;;;;5000912;28;20210;-92
2023/01/29 14:10:31;;;;;;;5.33;4.33;;;3.70;99.90;;;;;;5018063;28;20185;-93